Levering, MI (49755)

8:05 PM EDT on September 01, 2015 (GMT -0400)
North Levering MI | | Change Station
CLOSE
Current Station
Personal Weather Station
Location: Levering, MI
Elevation: 741 ft
Nearby Weather Stations

Elev 741 ft 45.67 °N, 84.79 °W | Updated 9 seconds ago

Clear
Clear
78.3 °F
Feels Like 81 °F
N
1.8
Wind Variable Wind from East
Gusts 5.4 mph

Today
High -- | Low -- °F
--% Chance of Precip.
Yesterday
High -- | Low -- °F
Precip. -- in
7:00 AM 8:17 PM
Waning Gibbous, 85% visible
Pressure 29.96 in
Visibility 10.0 miles
Clouds Few 4700 ft
Mostly Cloudy 6000 ft
Mostly Cloudy 7500 ft
Heat Index 81 °F
Dew Point 70 °F
Humidity 75%
Rainfall 0.00 in
Snow Depth Not available.
UV 0 out of 12
Pollen 10.40 out of 12
Air Quality Not available.
Flu Activity Not available.
METAR KPLN 012354Z AUTO 00000KT 10SM FEW047 BKN060 BKN075 27/22 A2996 RMK AO2 SLP144 T02670217 10306 20267 55001
Pressure 29.96 in
Visibility 10.0 miles
Clouds Few 4700 ft
Mostly Cloudy 6000 ft
Mostly Cloudy 7500 ft
Heat Index 81 °F
Dew Point 70 °F
Humidity 75%
Rainfall 0.00 in
Snow Depth Not available.
UV 0 out of 12
Pollen 10.40 out of 12
Air Quality Not available.
Flu Activity Not available.
METAR KPLN 012354Z AUTO 00000KT 10SM FEW047 BKN060 BKN075 27/22 A2996 RMK AO2 SLP144 T02670217 10306 20267 55001
Nowcast | as of 8:00 PM EDT on September 1, 2015

At 9 PM...mostly clear. Temperature 75. Light winds. At 11 PM...partly cloudy. Temperature 73. Light winds. At 1 am...mostly clear. Areas of fog. Temperature 72. Light winds. At 3 am...partly cloudy. Areas of fog. Temperature 72. Light winds.

×

10-Day Weather Forecast

×

Almanac

Astronomy

Sep. 01, 2015 Rise Set
Actual Time
Civil Twilight
Nautical Twilight
Astronomical Twilight
Moon
Length of Visible Light
Length of Day
Tomorrow will be .
, % of the Moon is Illuminated

Today's Extremes

State Highs State Lows

Community

WunderPhotos

Upload Photos

1,851,653 photos uploaded!

WunderBlogs® & News

Nearby

Air Quality

  Air Quality AQ Index Pollutant
Not available.

Snow Depth

Station Depth Elevation

Earthquake Activity

City Distance Mag. Time & Date
Minimum magnitude displayed is 2.5.

Coastal Water Temperatures

Place Temperature

Stations

Nearby Weather Stations

Station Location Temp. Windchill Dew Point Humidity Wind Precip. Elev Updated Type